createdAt,value
2022-09-28T00:01:22.024Z,55.70
2022-09-28T00:03:51.747Z,57.10
2022-09-28T00:06:22.798Z,56.10
2022-09-28T00:08:51.737Z,53.00
2022-09-28T00:11:21.480Z,51.70
2022-09-28T00:13:51.610Z,53.20
2022-09-28T00:16:22.931Z,55.70
2022-09-28T00:18:51.442Z,57.20
2022-09-28T00:21:22.014Z,54.90
2022-09-28T00:23:53.855Z,52.10
2022-09-28T00:26:22.327Z,51.00
2022-09-28T00:28:55.145Z,50.30
2022-09-28T00:31:23.439Z,52.30
2022-09-28T00:33:55.482Z,54.70
2022-09-28T00:36:24.610Z,56.30
2022-09-28T00:38:52.666Z,55.60
2022-09-28T00:41:20.927Z,52.30
2022-09-28T00:43:49.224Z,51.20
2022-09-28T00:46:35.695Z,51.90
2022-09-28T00:49:09.609Z,55.10
2022-09-28T00:51:40.396Z,56.80
2022-09-28T00:54:09.410Z,58.30
2022-09-28T00:56:41.153Z,54.60
2022-09-28T00:59:10.241Z,52.60
2022-09-28T01:01:39.099Z,51.20
2022-09-28T01:04:07.806Z,50.90
2022-09-28T01:06:38.686Z,53.40
2022-09-28T01:09:11.076Z,55.70
2022-09-28T01:11:40.449Z,57.10
2022-09-28T01:14:12.500Z,58.20
2022-09-28T01:16:46.955Z,56.50
2022-09-28T01:20:08.146Z,53.80
2022-09-28T01:23:01.508Z,52.20
2022-09-28T01:25:42.376Z,55.60
2022-09-28T01:28:17.788Z,57.60
2022-09-28T01:31:12.803Z,58.70
2022-09-28T01:33:52.650Z,55.50
2022-09-28T01:36:34.137Z,52.70
2022-09-28T01:39:41.557Z,51.70
2022-09-28T01:42:17.515Z,52.20
2022-09-28T01:44:50.341Z,54.90
2022-09-28T01:47:23.521Z,56.90
2022-09-28T01:50:03.646Z,58.10
2022-09-28T01:52:58.851Z,59.00
2022-09-28T01:55:44.753Z,55.00
2022-09-28T01:58:39.083Z,52.50
2022-09-28T02:01:29.985Z,53.90
2022-09-28T02:04:09.280Z,57.00
2022-09-28T02:06:44.688Z,58.60
2022-09-28T02:09:21.369Z,59.50
2022-09-28T02:12:00.269Z,56.10
2022-09-28T02:14:30.667Z,53.50
2022-09-28T02:16:59.266Z,53.10
2022-09-28T02:19:32.469Z,51.60
2022-09-28T02:22:09.309Z,54.10
2022-09-28T02:24:43.280Z,57.20
2022-09-28T02:27:38.638Z,58.20
2022-09-28T02:30:08.060Z,59.30
2022-09-28T02:32:39.959Z,57.00
2022-09-28T02:35:14.503Z,53.90
2022-09-28T02:37:43.948Z,52.70
2022-09-28T02:40:18.545Z,55.30
2022-09-28T02:43:23.958Z,57.60
2022-09-28T02:45:57.560Z,59.30
2022-09-28T02:48:44.215Z,60.30
2022-09-28T02:51:37.459Z,57.60
2022-09-28T02:54:31.405Z,54.70
2022-09-28T02:57:36.837Z,52.90
2022-09-28T03:00:06.705Z,52.60
2022-09-28T03:03:10.407Z,55.60
2022-09-28T03:06:10.636Z,57.80
2022-09-28T03:09:05.349Z,59.30
2022-09-28T03:11:52.379Z,60.30
2022-09-28T03:14:20.797Z,55.90
2022-09-28T03:16:58.396Z,53.90
2022-09-28T03:19:31.853Z,54.40
2022-09-28T03:22:01.832Z,57.50
2022-09-28T03:24:30.175Z,59.20
2022-09-28T03:26:58.193Z,60.30
2022-09-28T03:29:26.429Z,60.10
2022-09-28T03:32:00.675Z,56.30
2022-09-28T03:34:28.819Z,54.20
2022-09-28T03:36:57.322Z,53.00
2022-09-28T03:39:25.467Z,52.50
2022-09-28T03:41:53.479Z,55.30
2022-09-28T03:44:22.854Z,57.60
2022-09-28T03:46:51.144Z,59.00
2022-09-28T03:49:19.405Z,60.20
2022-09-28T03:51:50.585Z,61.30
2022-09-28T03:54:18.843Z,59.40
2022-09-28T03:56:47.112Z,56.10
2022-09-28T03:59:15.562Z,54.20
2022-09-28T04:01:43.877Z,55.90
2022-09-28T04:04:13.426Z,58.50
2022-09-28T04:06:42.191Z,60.20
2022-09-28T04:09:12.318Z,61.40
2022-09-28T04:11:59.703Z,62.20
2022-09-28T04:14:31.047Z,63.00
2022-09-28T04:16:59.369Z,58.60
2022-09-28T04:19:29.410Z,56.20
2022-09-28T04:22:16.766Z,54.90
2022-09-28T04:24:45.033Z,53.20
2022-09-28T04:27:13.344Z,53.80
2022-09-28T04:29:41.569Z,57.00
2022-09-28T04:32:11.485Z,58.90
2022-09-28T04:34:44.117Z,60.60
2022-09-28T04:37:13.162Z,61.70
2022-09-28T04:39:45.021Z,62.50
2022-09-28T04:42:17.988Z,63.10
2022-09-28T04:44:46.961Z,58.50
2022-09-28T04:47:15.117Z,56.40
2022-09-28T04:49:58.439Z,55.80
2022-09-28T04:52:31.435Z,59.30
2022-09-28T04:54:59.779Z,61.50
2022-09-28T04:57:27.891Z,63.10
2022-09-28T04:59:56.183Z,64.00
2022-09-28T05:02:24.450Z,64.60
2022-09-28T05:05:24.356Z,61.20
2022-09-28T05:08:10.897Z,58.50
2022-09-28T05:10:39.343Z,56.40
2022-09-28T05:13:12.422Z,54.90
2022-09-28T05:15:42.894Z,54.30
2022-09-28T05:18:11.460Z,55.60
2022-09-28T05:21:02.289Z,58.50
2022-09-28T05:23:30.532Z,60.90
2022-09-28T05:26:02.456Z,62.40
2022-09-28T05:28:33.707Z,63.30
2022-09-28T05:31:33.699Z,64.00
2022-09-28T05:34:12.506Z,63.20
2022-09-28T05:36:40.803Z,58.60
2022-09-28T05:39:09.261Z,57.40
2022-09-28T05:41:37.468Z,58.40
2022-09-28T05:44:06.091Z,62.00
2022-09-28T05:46:35.890Z,63.60
2022-09-28T05:49:04.560Z,64.70
2022-09-28T05:51:32.723Z,65.50
2022-09-28T05:54:04.835Z,65.90
2022-09-28T05:56:34.661Z,63.30
2022-09-28T05:59:05.629Z,60.00
2022-09-28T06:01:33.967Z,57.80
2022-09-28T06:04:03.288Z,56.60
2022-09-28T06:06:32.615Z,55.30
2022-09-28T06:09:00.870Z,55.20
2022-09-28T06:11:54.878Z,58.50
2022-09-28T06:14:33.713Z,60.80
2022-09-28T06:17:02.318Z,62.50
2022-09-28T06:19:30.589Z,63.50
2022-09-28T06:22:27.682Z,64.10
2022-09-28T06:25:02.181Z,64.70
2022-09-28T06:27:30.421Z,59.70
2022-09-28T06:29:58.719Z,57.80
2022-09-28T06:32:26.991Z,57.00
2022-09-28T06:34:56.608Z,60.20
2022-09-28T06:37:26.722Z,62.60
2022-09-28T06:39:55.002Z,64.00
2022-09-28T06:42:24.937Z,65.00
2022-09-28T06:45:22.034Z,65.40
2022-09-28T06:48:10.662Z,65.50
2022-09-28T06:50:43.506Z,60.10
2022-09-28T06:53:27.613Z,58.40
2022-09-28T06:56:10.890Z,56.60
2022-09-28T06:58:39.220Z,55.20
2022-09-28T07:01:08.157Z,54.40
2022-09-28T07:03:56.519Z,57.30
2022-09-28T07:06:48.081Z,60.30
2022-09-28T07:09:49.322Z,62.00
2022-09-28T07:12:30.182Z,63.10
2022-09-28T07:15:03.399Z,63.80
2022-09-28T07:17:33.319Z,64.10
2022-09-28T07:20:16.691Z,62.40
2022-09-28T07:22:47.186Z,58.20
2022-09-28T07:25:19.923Z,56.50
2022-09-28T07:28:08.354Z,58.80
2022-09-28T07:30:56.924Z,62.00
2022-09-28T07:33:51.716Z,64.40
2022-09-28T07:36:31.322Z,65.00
2022-09-28T07:38:59.711Z,65.20
2022-09-28T07:41:28.155Z,65.30
2022-09-28T07:43:56.331Z,60.60
2022-09-28T07:46:24.906Z,58.60
2022-09-28T07:48:58.355Z,57.00
2022-09-28T07:51:45.118Z,55.40
2022-09-28T07:54:39.262Z,54.20
2022-09-28T07:57:18.654Z,56.60
2022-09-28T08:00:01.757Z,59.60
2022-09-28T08:02:42.150Z,61.30
2022-09-28T08:05:10.612Z,62.80
2022-09-28T08:07:38.868Z,63.40
2022-09-28T08:10:10.942Z,64.00
2022-09-28T08:13:17.345Z,64.20
2022-09-28T08:16:20.780Z,58.60
2022-09-28T08:19:00.729Z,56.70
2022-09-28T08:21:29.087Z,59.40
2022-09-28T08:23:57.362Z,62.30
2022-09-28T08:26:25.741Z,63.70
2022-09-28T08:28:54.281Z,64.70
2022-09-28T08:31:40.723Z,65.00
2022-09-28T08:34:28.880Z,65.30
2022-09-28T08:37:15.735Z,60.40
2022-09-28T08:40:01.987Z,58.30
2022-09-28T08:43:10.110Z,56.50
2022-09-28T08:45:59.862Z,55.40
2022-09-28T08:49:25.914Z,56.30
2022-09-28T08:52:26.581Z,59.30
2022-09-28T08:55:19.601Z,62.10
2022-09-28T08:58:01.764Z,63.60
2022-09-28T09:00:50.410Z,64.30
2022-09-28T09:03:23.590Z,64.70
2022-09-28T09:06:40.225Z,61.40
2022-09-28T09:10:17.290Z,58.10
2022-09-28T09:13:02.451Z,56.50
2022-09-28T09:16:11.804Z,54.80
2022-09-28T09:19:16.742Z,53.60
2022-09-28T09:22:29.261Z,56.40
2022-09-28T09:25:16.693Z,60.10
2022-09-28T09:28:17.169Z,62.30
2022-09-28T09:31:08.883Z,63.50
2022-09-28T09:33:54.208Z,64.30
2022-09-28T09:37:14.865Z,64.70
2022-09-28T09:40:05.525Z,59.10
2022-09-28T09:43:29.516Z,57.40
2022-09-28T09:46:39.849Z,60.90
2022-09-28T09:49:26.889Z,64.30
2022-09-28T09:52:13.537Z,65.90
2022-09-28T09:55:15.341Z,66.80
2022-09-28T09:58:05.548Z,66.90
2022-09-28T10:00:46.281Z,62.50
2022-09-28T10:03:33.106Z,59.60
2022-09-28T10:06:27.231Z,58.10
2022-09-28T10:09:24.109Z,56.90
2022-09-28T10:11:52.722Z,55.70
2022-09-28T10:14:22.575Z,54.70
2022-09-28T10:16:59.143Z,54.80
2022-09-28T10:19:50.428Z,59.10
2022-09-28T10:22:37.012Z,62.40
2022-09-28T10:25:13.942Z,64.00
2022-09-28T10:27:47.929Z,65.30
2022-09-28T10:30:18.964Z,66.00
2022-09-28T10:32:49.859Z,66.60
2022-09-28T10:35:21.438Z,62.40
2022-09-28T10:38:00.267Z,60.10
2022-09-28T10:40:49.170Z,59.00
2022-09-28T10:43:50.716Z,63.70
2022-09-28T10:46:24.865Z,65.30
2022-09-28T10:49:05.311Z,67.20
2022-09-28T10:51:45.284Z,68.30
2022-09-28T10:54:22.845Z,68.80
2022-09-28T10:56:55.053Z,63.80
2022-09-28T10:59:49.263Z,61.40
2022-09-28T11:02:49.480Z,59.60
2022-09-28T11:05:25.558Z,58.80
2022-09-28T11:07:58.151Z,58.40
2022-09-28T11:10:34.048Z,57.70
2022-09-28T11:13:15.491Z,59.20
2022-09-28T11:15:51.544Z,63.80
2022-09-28T11:21:44.420Z,66.80
2022-09-28T11:24:19.078Z,68.30
2022-09-28T11:26:52.276Z,64.60
2022-09-28T11:29:39.368Z,61.60
2022-09-28T11:32:45.024Z,60.00
2022-09-28T11:35:38.999Z,58.70
2022-09-28T11:38:26.129Z,57.80
2022-09-28T11:41:25.311Z,57.20
2022-09-28T11:44:15.328Z,59.60
2022-09-28T11:46:52.871Z,63.40
2022-09-28T11:49:21.220Z,66.50
2022-09-28T11:51:53.377Z,68.00
2022-09-28T11:54:38.885Z,68.90
2022-09-28T11:57:12.533Z,63.70
2022-09-28T11:59:50.722Z,62.30
2022-09-28T12:02:28.048Z,60.90
2022-09-28T12:05:01.817Z,65.20
2022-09-28T12:07:52.153Z,67.90
2022-09-28T12:10:45.260Z,69.70
2022-09-28T12:13:28.851Z,64.60
2022-09-28T12:19:30.411Z,60.80
2022-09-28T12:22:05.717Z,59.20
2022-09-28T12:24:53.242Z,57.80
2022-09-28T12:27:33.694Z,57.80
2022-09-28T12:30:22.350Z,60.80
2022-09-28T12:33:07.519Z,64.40
2022-09-28T12:36:00.542Z,66.10
2022-09-28T12:38:28.876Z,61.50
2022-09-28T12:41:21.354Z,59.50
2022-09-28T12:44:13.665Z,59.60
2022-09-28T12:47:17.746Z,63.20
2022-09-28T12:50:43.290Z,65.70
2022-09-28T12:53:24.834Z,67.80
2022-09-28T12:56:05.275Z,69.00
2022-09-28T12:58:58.154Z,62.90
2022-09-28T13:01:45.101Z,61.40
2022-09-28T13:04:39.236Z,60.00
2022-09-28T13:07:21.502Z,58.50
2022-09-28T13:10:08.445Z,57.60
2022-09-28T13:12:56.339Z,57.50
2022-09-28T13:16:03.000Z,60.50
2022-09-28T13:19:04.629Z,63.30
2022-09-28T13:21:47.688Z,61.10
2022-09-28T13:24:32.076Z,58.90
2022-09-28T13:27:17.529Z,58.10
2022-09-28T13:29:47.342Z,62.00
2022-09-28T13:32:17.928Z,64.80
2022-09-28T13:34:50.958Z,64.10
2022-09-28T13:37:25.343Z,60.70
2022-09-28T13:39:55.891Z,59.00
2022-09-28T13:42:42.568Z,57.70
2022-09-28T13:45:23.069Z,56.40
2022-09-28T13:48:42.427Z,55.70
2022-09-28T13:51:28.008Z,56.70
2022-09-28T13:53:59.275Z,60.50
2022-09-28T13:56:52.872Z,62.30
2022-09-28T13:59:32.902Z,58.10
2022-09-28T14:02:13.732Z,56.70
2022-09-28T14:05:26.645Z,58.80
2022-09-28T14:08:10.028Z,61.40
2022-09-28T14:10:53.111Z,58.70
2022-09-28T14:13:42.828Z,56.70
2022-09-28T14:16:21.546Z,55.50
2022-09-28T14:18:58.249Z,54.70
2022-09-28T14:21:45.594Z,54.10
2022-09-28T14:24:51.127Z,56.00
2022-09-28T14:27:37.957Z,60.20
2022-09-28T14:30:12.291Z,56.50
2022-09-28T14:33:07.756Z,55.00
2022-09-28T14:35:50.078Z,56.00
2022-09-28T14:38:31.764Z,59.70
2022-09-28T14:41:09.681Z,58.00
2022-09-28T14:43:45.023Z,55.90
2022-09-28T14:46:13.443Z,54.70
2022-09-28T14:48:51.671Z,53.60
2022-09-28T14:51:28.972Z,53.60
2022-09-28T14:54:13.746Z,55.20
2022-09-28T14:56:45.449Z,58.40
2022-09-28T14:59:24.873Z,57.00
2022-09-28T15:02:07.021Z,54.80
2022-09-28T15:04:40.847Z,54.30
2022-09-28T15:07:29.391Z,57.00
2022-09-28T15:10:00.151Z,59.90
2022-09-28T15:12:32.850Z,56.60
2022-09-28T15:15:19.746Z,55.30
2022-09-28T15:17:54.734Z,54.40
2022-09-28T15:20:34.230Z,53.50
2022-09-28T15:23:02.541Z,54.20
2022-09-28T15:25:32.591Z,57.60
2022-09-28T15:28:13.760Z,59.50
2022-09-28T15:30:42.125Z,56.30
2022-09-28T15:33:31.133Z,54.70
2022-09-28T15:36:06.385Z,56.10
2022-09-28T15:38:36.323Z,57.10
2022-09-28T15:41:06.992Z,54.80
2022-09-28T15:43:36.122Z,53.80
2022-09-28T15:46:19.735Z,53.10
2022-09-28T15:48:55.464Z,52.60
2022-09-28T15:51:28.332Z,53.40
2022-09-28T15:54:14.245Z,54.60
2022-09-28T15:56:59.990Z,53.10
2022-09-28T15:59:33.777Z,52.30
2022-09-28T16:02:10.972Z,54.20
2022-09-28T16:04:54.138Z,53.30
2022-09-28T16:07:42.085Z,52.00
2022-09-28T16:10:13.311Z,51.50
2022-09-28T16:12:45.542Z,51.20
2022-09-28T16:15:21.670Z,52.30
2022-09-28T16:17:52.857Z,51.70
2022-09-28T16:20:27.390Z,51.00
2022-09-28T16:22:57.107Z,51.50
2022-09-28T16:25:27.235Z,52.30
2022-09-28T16:27:56.525Z,51.20
2022-09-28T16:30:33.787Z,50.30
2022-09-28T16:33:06.114Z,50.10
2022-09-28T16:35:52.050Z,51.10
2022-09-28T16:38:20.793Z,51.30
2022-09-28T16:40:49.730Z,49.70
2022-09-28T16:43:29.856Z,49.70
2022-09-28T16:46:00.917Z,51.50
2022-09-28T16:48:34.207Z,50.50
2022-09-28T16:51:02.451Z,49.80
2022-09-28T16:53:30.738Z,49.50
2022-09-28T16:55:59.233Z,49.70
2022-09-28T16:58:27.968Z,51.00
2022-09-28T17:00:55.908Z,49.80
2022-09-28T17:03:24.517Z,49.60
2022-09-28T17:06:02.622Z,50.10
2022-09-28T17:08:31.115Z,50.50
2022-09-28T17:11:22.579Z,48.90
2022-09-28T17:13:49.131Z,48.50
2022-09-28T17:16:27.933Z,48.70
2022-09-28T17:19:16.889Z,49.80
2022-09-28T17:21:45.283Z,48.50
2022-09-28T17:24:13.500Z,48.00
2022-09-28T17:26:41.906Z,50.10
2022-09-28T17:29:13.116Z,49.00
2022-09-28T17:31:45.564Z,47.90
2022-09-28T17:34:15.050Z,47.30
2022-09-28T17:36:44.465Z,47.40
2022-09-28T17:39:15.515Z,49.30
2022-09-28T17:41:43.936Z,51.40
2022-09-28T17:44:12.353Z,48.90
2022-09-28T17:46:44.716Z,48.00
2022-09-28T17:49:12.956Z,49.20
2022-09-28T17:51:41.051Z,52.00
2022-09-28T17:54:10.110Z,50.00
2022-09-28T17:56:40.532Z,49.30
2022-09-28T17:59:13.428Z,48.30
2022-09-28T18:01:42.123Z,47.80
2022-09-28T18:04:19.184Z,49.70
2022-09-28T18:06:56.112Z,53.00
2022-09-28T18:09:24.311Z,50.60
2022-09-28T18:11:58.662Z,49.20
2022-09-28T18:14:26.908Z,49.00
2022-09-28T18:16:55.033Z,51.40
2022-09-28T18:19:23.171Z,51.80
2022-09-28T18:21:51.392Z,50.30
2022-09-28T18:24:19.596Z,49.80
2022-09-28T18:26:47.912Z,49.40
2022-09-28T18:29:18.399Z,51.00
2022-09-28T18:31:46.644Z,54.10
2022-09-28T18:34:15.244Z,53.50
2022-09-28T18:36:43.060Z,51.60
2022-09-28T18:39:11.607Z,50.50
2022-09-28T18:41:39.964Z,51.50
2022-09-28T18:44:08.101Z,55.40
2022-09-28T18:46:36.403Z,53.10
2022-09-28T18:49:07.635Z,51.10
2022-09-28T18:51:36.069Z,50.00
2022-09-28T18:54:04.848Z,49.20
2022-09-28T18:56:33.644Z,49.50
2022-09-28T18:59:02.021Z,52.10
2022-09-28T19:01:31.318Z,54.40
2022-09-28T19:04:05.237Z,51.30
2022-09-28T19:06:34.802Z,49.80
2022-09-28T19:09:02.922Z,49.80
2022-09-28T19:11:31.246Z,53.30
2022-09-28T19:13:59.850Z,54.70
2022-09-28T19:16:30.263Z,52.40
2022-09-28T19:18:59.427Z,50.90
2022-09-28T19:21:27.752Z,50.60
2022-09-28T19:23:56.023Z,50.00
2022-09-28T19:26:26.865Z,51.30
2022-09-28T19:28:57.127Z,55.30
2022-09-28T19:31:26.567Z,54.20
2022-09-28T19:33:54.891Z,52.40
2022-09-28T19:36:25.927Z,51.30
2022-09-28T19:38:54.092Z,53.60
2022-09-28T19:41:24.734Z,55.90
2022-09-28T19:43:53.018Z,53.00
2022-09-28T19:46:21.198Z,52.10
2022-09-28T19:48:49.521Z,51.60
2022-09-28T19:51:17.701Z,51.30
2022-09-28T19:53:45.872Z,52.60
2022-09-28T19:56:13.989Z,55.70
2022-09-28T19:58:42.360Z,58.00
2022-09-28T20:01:10.528Z,54.80
2022-09-28T20:03:41.762Z,52.90
2022-09-28T20:06:11.824Z,53.10
2022-09-28T20:08:44.760Z,55.70
2022-09-28T20:11:13.385Z,55.90
2022-09-28T20:13:41.440Z,53.20
2022-09-28T20:16:28.817Z,51.70
2022-09-28T20:18:59.358Z,51.00
2022-09-28T20:21:27.904Z,50.90
2022-09-28T20:23:56.530Z,53.00
2022-09-28T20:26:25.248Z,55.20
2022-09-28T20:28:54.638Z,53.30
2022-09-28T20:31:24.954Z,51.80
2022-09-28T20:33:53.438Z,51.00
2022-09-28T20:36:24.029Z,53.70
2022-09-28T20:38:54.556Z,56.10
2022-09-28T20:42:21.782Z,52.30
2022-09-28T20:44:50.199Z,52.80
2022-09-28T20:47:18.346Z,54.30
2022-09-28T20:49:46.593Z,52.30
2022-09-28T20:52:14.763Z,51.20
2022-09-28T20:54:43.030Z,50.50
2022-09-28T20:57:11.261Z,50.50
2022-09-28T20:59:40.085Z,52.90
2022-09-28T21:02:08.808Z,55.00
2022-09-28T21:04:37.008Z,53.10
2022-09-28T21:07:05.167Z,51.00
2022-09-28T21:09:33.377Z,50.90
2022-09-28T21:12:02.090Z,53.40
2022-09-28T21:14:29.994Z,56.10
2022-09-28T21:16:58.125Z,53.20
2022-09-28T21:19:26.496Z,52.30
2022-09-28T21:21:54.701Z,52.00
2022-09-28T21:24:23.019Z,51.70
2022-09-28T21:26:51.183Z,52.10
2022-09-28T21:29:19.379Z,55.20
2022-09-28T21:31:47.823Z,58.00
2022-09-28T21:34:18.602Z,54.60
2022-09-28T21:36:48.396Z,53.30
2022-09-28T21:39:16.596Z,53.10
2022-09-28T21:41:45.270Z,56.40
2022-09-28T21:44:13.573Z,57.70
2022-09-28T21:46:41.975Z,54.90
2022-09-28T21:49:11.415Z,53.40
2022-09-28T21:51:39.782Z,52.50
2022-09-28T21:54:08.029Z,51.90
2022-09-28T21:56:36.228Z,52.60
2022-09-28T21:59:04.551Z,55.80
2022-09-28T22:01:32.931Z,58.50
2022-09-28T22:04:01.411Z,56.10
2022-09-28T22:06:29.821Z,54.40
2022-09-28T22:08:58.110Z,53.50
2022-09-28T22:11:29.085Z,55.70
2022-09-28T22:13:59.497Z,59.10
2022-09-28T22:16:32.012Z,56.20
2022-09-28T22:19:00.450Z,54.40
2022-09-28T22:21:33.286Z,53.70
2022-09-28T22:24:04.374Z,52.80
2022-09-28T22:26:34.861Z,53.00
2022-09-28T22:29:06.188Z,54.70
2022-09-28T22:31:38.264Z,58.60
2022-09-28T22:34:08.029Z,57.70
2022-09-28T22:36:36.600Z,55.60
2022-09-28T22:39:05.640Z,54.60
2022-09-28T22:41:34.229Z,55.70
2022-09-28T22:44:02.791Z,60.00
2022-09-28T22:46:30.949Z,59.00
2022-09-28T22:49:00.308Z,56.30
2022-09-28T22:51:30.605Z,54.70
2022-09-28T22:53:59.418Z,53.80
2022-09-28T22:56:28.141Z,53.20
2022-09-28T22:58:56.280Z,54.70
2022-09-28T23:01:27.303Z,57.90
2022-09-28T23:03:56.818Z,60.10
2022-09-28T23:06:27.376Z,57.20
2022-09-28T23:08:55.988Z,55.40
2022-09-28T23:11:24.298Z,54.70
2022-09-28T23:13:54.274Z,56.40
2022-09-28T23:16:22.810Z,60.10
2022-09-28T23:18:50.864Z,57.00
2022-09-28T23:21:22.203Z,55.10
2022-09-28T23:23:55.821Z,54.30
2022-09-28T23:26:27.181Z,53.50
2022-09-28T23:28:56.201Z,53.50
2022-09-28T23:31:34.937Z,57.10
2022-09-28T23:34:05.794Z,59.70
2022-09-28T23:36:34.594Z,57.50
2022-09-28T23:39:03.966Z,55.60
2022-09-28T23:41:32.164Z,55.00
2022-09-28T23:44:00.435Z,57.40
2022-09-28T23:46:28.709Z,60.30
2022-09-28T23:48:57.020Z,57.90
2022-09-28T23:51:25.269Z,55.90
2022-09-28T23:53:53.560Z,54.80
2022-09-28T23:56:21.910Z,54.00
2022-09-28T23:58:49.980Z,54.50
